Flight Track Log - Related Links

Times and Time Zones

All times are in EDT time to prevent confusion due to time zone crossing. See the AWI3780 flight status page for this flight to view local times or setup timezone preferences in your user account.

Time Position Orientation Groundspeed Altitude Reporting Facility
EDT Latitude Longitude Course Direction KTS MPH feet Rate Location/Type
Sat 04:00:00 PM 44.1339 -73.2731 196° South  Level FlightAware Approximate
Sat 04:01:00 PM 44.0233 -73.3174 196° South  Level FlightAware Approximate
Sat 04:01:20 PM 44.3869 -73.3464 189° South 286 329 9,100  Level Boston Center
Sat 04:02:00 PM 43.9127 -73.3616 196° South  Level FlightAware Approximate
Sat 04:02:20 PM 44.3075 -73.3714 193° South 281 323 11,100  Level Boston Center
Sat 04:03:00 PM 43.8015 -73.4031 195° South  Level FlightAware Approximate
Sat 04:03:20 PM 44.2261 -73.3933 191° South 298 343 14,000  Level Boston Center
Sat 04:04:00 PM 43.6903 -73.4441 195° South  Level FlightAware Approximate
Sat 04:04:20 PM 44.1406 -73.4178 192° South 309 356 16,300  Level Boston Center
Sat 04:05:00 PM 43.5790 -73.4848 194° South  Level FlightAware Approximate
Sat 04:05:20 PM 44.0464 -73.4453 192° South 322 371 17,900  Level Boston Center
Sat 04:06:20 PM 43.9525 -73.4697 191° South 346 398 19,800 1,850 Climbing Boston Center
Sat 04:07:20 PM 43.8500 -73.4994 192° South 361 415 21,600 1,550 Climbing Boston Center
Sat 04:08:20 PM 43.7686 -73.5211 191° South 377 434 22,900 1,650 Climbing Boston Center
Sat 04:09:20 PM 43.6411 -73.5561 191° South 387 445 24,900 1,550 Climbing Boston Center
Sat 04:10:20 PM 43.5325 -73.5883 192° South 392 451 26,000 550 Climbing Boston Center
Sat 04:11:20 PM 43.4217 -73.6178 191° South 398 458 26,000  Level Boston Center
Sat 04:12:20 PM 43.3131 -73.6472 191° South 398 458 26,000  Level Boston Center
Sat 04:13:20 PM 43.2064 -73.6764 191° South 398 458 26,000  Level Boston Center
Sat 04:14:20 PM 43.1186 -73.7031 193° South 398 458 26,000  Level Boston Center
Sat 04:15:20 PM 43.0017 -73.7347 191° South 398 458 26,000  Level Boston Center
Sat 04:16:20 PM 42.8928 -73.7664 192° South 398 458 26,000  Level Boston Center
Sat 04:17:20 PM 42.7842 -73.7953 191° South 398 458 26,000  Level Boston Center
Sat 04:18:20 PM 42.6975 -73.8836 217° Southwest 380 437 26,000  Level Boston Center
Sat 04:19:20 PM 42.6439 -74.0122 240° Southwest 372 428 26,000  Level Boston Center
Sat 04:20:20 PM 42.5792 -74.1544 238° Southwest 394 453 26,000  Level Boston Center
Sat 04:21:20 PM 42.5211 -74.2739 237° Southwest 394 453 26,000  Level Boston Center
Sat 04:22:20 PM 42.4606 -74.3961 236° Southwest 394 453 26,000  Level Boston Center
Sat 04:23:32 PM 42.4044 -74.5039 235° Southwest 394 453 26,000 -349 Level Boston Center
Sat 04:25:29 PM 42.2647 -74.7442 232° Southwest 393 452 24,900 -876 Descending New York Center
Sat 04:26:30 PM 42.1886 -74.8431 224° Southwest 393 452 23,400 -1,488 Descending New York Center
Sat 04:27:30 PM 42.1144 -74.9419 225° Southwest 381 438 21,900 -1,550 Descending New York Center
Sat 04:28:30 PM 42.0403 -75.0350 223° Southwest 370 426 20,300 -1,388 Descending New York Center
Sat 04:29:31 PM 41.9597 -75.1386 224° Southwest 365 420 19,100 -645 Descending New York Center
Sat 04:30:31 PM 41.8875 -75.2314 224° Southwest 365 420 19,000 -50 Descending New York Center
Sat 04:31:32 PM 41.7944 -75.2725 198° South 376 433 19,000 -51 Level New York Center
Sat 04:32:29 PM 41.7169 -75.3367 212° Southwest 376 433 18,900 -706 Descending New York Center
Sat 04:33:31 PM 41.6331 -75.4031 211° Southwest 371 427 17,600 -1,475 Descending New York Center
Sat 04:34:31 PM 41.5472 -75.4719 211° Southwest 342 394 15,900 -1,450 Descending New York Center
Sat 04:35:31 PM 41.4675 -75.5328 210° Southwest 332 382 14,700 -1,250 Descending New York Center
Sat 04:36:31 PM 41.3878 -75.5992 212° Southwest 332 382 13,400 -1,311 Descending New York Center
Sat 04:37:30 PM 41.3125 -75.6572 210° Southwest 332 382 12,100 -756 Descending New York Center
Sat 04:38:30 PM 41.2447 -75.6881 199° South 309 356 11,900 -101 Descending New York Center
Sat 04:39:29 PM 41.1656 -75.6878 180° South 286 329 11,900 -454 Level New York Center
Sat 04:40:29 PM 41.0831 -75.6653 168° South 281 323 11,000 -900 Descending New York Center
Sat 04:41:29 PM 41.0072 -75.6378 165° South 281 323 10,100 -496 Descending New York Center
Sat 04:42:30 PM 40.9372 -75.6136 165° South 281 323 10,000 -50 Descending New York Center
Sat 04:43:30 PM 40.8531 -75.5831 165° South 287 330 10,000  Level New York Center
Sat 04:44:29 PM 40.7772 -75.5531 163° South 287 330 10,000  Level New York Center
Sat 04:45:30 PM 40.7014 -75.5258 165° South 287 330 10,000  Level New York Center
Sat 04:46:30 PM 40.6336 -75.4992 163° South 287 330 10,000  Level New York Center
Sat 04:47:31 PM 40.5597 -75.4722 165° South 282 325 10,000  Level New York Center
Sat 04:48:31 PM 40.4856 -75.4453 165° South 282 325 10,000 -298 Level New York Center
Sat 04:49:32 PM 40.4017 -75.4069 161° South 282 325 9,400 -1,050 Descending New York Center
Sat 04:50:31 PM 40.3386 -75.3700 156° South 277 319 7,900 -1,220 Descending New York Center
Sat 04:51:30 PM 40.2544 -75.3889 190° South 277 319 7,000 -793 Descending New York Center
Sat 04:52:32 PM 40.1783 -75.4192 197° South 287 330 6,300 -496 Descending New York Center
Sat 04:53:31 PM 40.1042 -75.4469 196° South 287 330 6,000 -153 Descending New York Center
Sat 04:54:30 PM 40.0364 -75.4719 196° South 275 316 6,000  Level New York Center
Sat 04:55:31 PM 39.9792 -75.4953 197° South 234 269 6,000  Level New York Center
Sat 04:56:29 PM 39.9286 -75.5136 196° South 201 231 6,000 -555 Level New York Center
Sat 04:57:30 PM 39.8781 -75.5208 186° South 188 216 4,900 -1,240 Descending New York Center
Sat 04:58:30 PM 39.8419 -75.4914 148° Southeast 155 178 3,500 -1,317 Descending New York Center
Sat 04:59:33 PM 39.8294 -75.4339 106° East 145 167 2,200 -1,026 Descending New York Center
Sat 05:00:27 PM 39.8333 -75.3833 84° East 159 183 1,500 -700 Descending Philadelphia TRACON
Sat 05:01:33 PM 39.8500 -75.3333 67° East 118 136 800 -619 Descending Philadelphia TRACON
Sat 05:02:33 PM 39.8667 -75.2833 67° East 124 143 200 -600 Descending Philadelphia TRACON

Login

Don't have an account? Register now (free) for customized features, flight alerts, and more!